createdAt,value
2019-03-29T00:02:24.880Z,7.47
2019-03-29T00:04:57.736Z,7.40
2019-03-29T00:07:39.542Z,7.48
2019-03-29T00:10:05.325Z,7.60
2019-03-29T00:12:38.058Z,7.43
2019-03-29T00:15:11.270Z,7.45
2019-03-29T00:17:44.161Z,7.59
2019-03-29T00:20:17.022Z,7.67
2019-03-29T00:22:50.122Z,7.65
2019-03-29T00:25:24.036Z,7.65
2019-03-29T00:27:57.089Z,7.53
2019-03-29T00:30:29.716Z,7.53
2019-03-29T00:33:02.381Z,7.55
2019-03-29T00:35:35.002Z,7.61
2019-03-29T00:38:07.741Z,7.65
2019-03-29T00:40:40.405Z,7.66
2019-03-29T00:43:13.071Z,7.54
2019-03-29T00:45:45.838Z,7.61
2019-03-29T00:48:18.661Z,7.44
2019-03-29T00:50:52.286Z,7.37
2019-03-29T00:53:25.038Z,7.39
2019-03-29T00:55:58.063Z,7.31
2019-03-29T00:58:31.260Z,7.30
2019-03-29T01:01:04.383Z,7.36
2019-03-29T01:03:37.347Z,7.32
2019-03-29T01:06:11.311Z,7.32
2019-03-29T01:08:44.205Z,7.29
2019-03-29T01:11:17.177Z,7.36
2019-03-29T01:13:50.253Z,7.19
2019-03-29T01:16:23.734Z,7.10
2019-03-29T01:18:56.420Z,7.13
2019-03-29T01:21:29.077Z,7.01
2019-03-29T01:24:01.752Z,6.97
2019-03-29T01:26:34.497Z,6.94
2019-03-29T01:29:07.169Z,6.85
2019-03-29T01:31:41.173Z,6.82
2019-03-29T01:34:14.202Z,6.77
2019-03-29T01:36:46.802Z,6.68
2019-03-29T01:39:19.548Z,6.57
2019-03-29T01:41:53.006Z,6.64
2019-03-29T01:44:26.021Z,6.49
2019-03-29T01:46:59.093Z,6.41
2019-03-29T01:49:31.981Z,6.34
2019-03-29T01:52:04.749Z,6.29
2019-03-29T01:54:37.435Z,6.24
2019-03-29T01:57:10.112Z,6.21
2019-03-29T01:59:43.233Z,6.22
2019-03-29T02:02:16.034Z,6.45
2019-03-29T02:04:48.686Z,6.30
2019-03-29T02:07:21.754Z,6.19
2019-03-29T02:09:54.625Z,6.21
2019-03-29T02:12:27.338Z,6.26
2019-03-29T02:15:00.034Z,6.08
2019-03-29T02:17:32.756Z,5.97
2019-03-29T02:20:05.956Z,5.88
2019-03-29T02:22:38.539Z,5.78
2019-03-29T02:25:11.419Z,5.75
2019-03-29T02:27:44.301Z,5.74
2019-03-29T02:30:17.529Z,5.74
2019-03-29T02:32:50.196Z,5.74
2019-03-29T02:35:22.922Z,5.74
2019-03-29T02:37:56.556Z,5.73
2019-03-29T02:40:29.825Z,5.71
2019-03-29T02:43:02.459Z,5.78
2019-03-29T02:45:35.133Z,5.84
2019-03-29T02:48:07.864Z,5.91
2019-03-29T02:50:40.609Z,6.15
2019-03-29T02:53:13.346Z,6.11
2019-03-29T02:55:46.004Z,6.10
2019-03-29T02:58:18.795Z,6.15
2019-03-29T03:00:51.495Z,6.13
2019-03-29T03:03:24.198Z,6.18
2019-03-29T03:05:56.965Z,6.11
2019-03-29T03:08:32.956Z,6.12
2019-03-29T03:11:04.284Z,6.01
2019-03-29T03:13:36.820Z,5.89
2019-03-29T03:16:10.833Z,5.77
2019-03-29T03:18:43.461Z,5.68
2019-03-29T03:21:16.106Z,5.64
2019-03-29T03:23:48.677Z,5.55
2019-03-29T03:26:21.492Z,5.49
2019-03-29T03:28:54.041Z,5.50
2019-03-29T03:31:26.749Z,5.58
2019-03-29T03:33:59.479Z,5.55
2019-03-29T03:36:32.074Z,5.68
2019-03-29T03:39:07.257Z,5.66
2019-03-29T03:41:39.897Z,5.67
2019-03-29T03:44:13.602Z,5.80
2019-03-29T03:46:46.202Z,5.72
2019-03-29T03:49:18.901Z,5.70
2019-03-29T03:51:51.565Z,5.75
2019-03-29T03:54:24.541Z,5.74
2019-03-29T03:56:57.702Z,5.63
2019-03-29T03:59:32.451Z,5.56
2019-03-29T04:02:04.958Z,5.65
2019-03-29T04:04:38.099Z,5.63
2019-03-29T04:07:10.762Z,5.45
2019-03-29T04:09:50.133Z,5.58
2019-03-29T04:12:17.807Z,5.55
2019-03-29T04:14:50.310Z,5.39
2019-03-29T04:17:22.895Z,5.27
2019-03-29T04:19:56.354Z,5.32
2019-03-29T04:22:28.877Z,5.29
2019-03-29T04:25:01.363Z,5.31
2019-03-29T04:27:33.857Z,5.33
2019-03-29T04:30:06.742Z,5.20
2019-03-29T04:32:39.944Z,5.28
2019-03-29T04:35:12.517Z,5.31
2019-03-29T04:37:45.021Z,5.39
2019-03-29T04:40:17.517Z,5.34
2019-03-29T04:42:50.128Z,5.26
2019-03-29T04:45:22.642Z,5.35
2019-03-29T04:47:55.136Z,5.40
2019-03-29T04:50:27.641Z,5.39
2019-03-29T04:53:01.914Z,5.40
2019-03-29T04:55:34.519Z,5.43
2019-03-29T04:58:07.114Z,5.37
2019-03-29T05:00:39.680Z,5.32
2019-03-29T05:03:12.345Z,5.38
2019-03-29T05:05:44.923Z,5.39
2019-03-29T05:08:17.419Z,5.38
2019-03-29T05:10:50.021Z,5.42
2019-03-29T05:13:22.524Z,5.44
2019-03-29T05:15:55.041Z,5.53
2019-03-29T05:18:27.534Z,5.60
2019-03-29T05:21:00.045Z,5.57
2019-03-29T05:23:32.541Z,5.54
2019-03-29T05:26:05.124Z,5.56
2019-03-29T05:28:37.627Z,5.60
2019-03-29T05:31:10.881Z,5.61
2019-03-29T05:33:43.390Z,5.60
2019-03-29T05:36:15.877Z,5.70
2019-03-29T05:38:48.669Z,5.66
2019-03-29T05:41:22.559Z,5.70
2019-03-29T05:43:55.061Z,5.78
2019-03-29T05:46:27.876Z,5.82
2019-03-29T05:49:00.361Z,5.83
2019-03-29T05:51:32.942Z,5.93
2019-03-29T05:54:05.428Z,5.94
2019-03-29T05:56:38.006Z,5.83
2019-03-29T05:59:11.064Z,5.82
2019-03-29T06:01:44.011Z,5.93
2019-03-29T06:04:17.030Z,5.95
2019-03-29T06:06:49.647Z,5.89
2019-03-29T06:09:22.156Z,5.94
2019-03-29T06:11:54.659Z,5.98
2019-03-29T06:14:27.181Z,5.97
2019-03-29T06:16:59.694Z,6.00
2019-03-29T06:19:32.311Z,6.05
2019-03-29T06:22:04.987Z,6.14
2019-03-29T06:24:37.523Z,6.14
2019-03-29T06:27:10.556Z,6.18
2019-03-29T06:29:43.052Z,6.16
2019-03-29T06:32:15.562Z,6.14
2019-03-29T06:34:48.058Z,6.23
2019-03-29T06:37:22.815Z,6.31
2019-03-29T06:39:56.578Z,6.46
2019-03-29T06:42:29.093Z,6.54
2019-03-29T06:45:01.656Z,6.59
2019-03-29T06:47:34.186Z,6.71
2019-03-29T06:50:07.246Z,6.74
2019-03-29T06:52:40.095Z,6.76
2019-03-29T06:55:13.039Z,6.83
2019-03-29T06:57:45.849Z,6.91
2019-03-29T07:00:18.579Z,7.02
2019-03-29T07:02:51.300Z,7.07
2019-03-29T07:05:23.885Z,7.12
2019-03-29T07:07:56.393Z,7.24
2019-03-29T07:10:28.933Z,7.32
2019-03-29T07:13:01.446Z,7.38
2019-03-29T07:15:33.945Z,7.45
2019-03-29T07:18:07.517Z,7.48
2019-03-29T07:20:40.386Z,7.56
2019-03-29T07:23:12.878Z,7.65
2019-03-29T07:25:45.365Z,7.72
2019-03-29T07:28:17.905Z,7.76
2019-03-29T07:30:50.417Z,7.87
2019-03-29T07:33:23.075Z,7.93
2019-03-29T07:35:55.624Z,7.97
2019-03-29T07:38:28.510Z,8.05
2019-03-29T07:41:01.005Z,8.12
2019-03-29T07:43:33.593Z,8.20
2019-03-29T07:46:06.858Z,8.27
2019-03-29T07:48:40.526Z,8.32
2019-03-29T07:51:13.250Z,8.41
2019-03-29T07:53:45.881Z,8.47
2019-03-29T07:56:18.419Z,8.51
2019-03-29T07:58:50.992Z,8.56
2019-03-29T08:01:24.492Z,8.64
2019-03-29T08:03:57.585Z,8.70
2019-03-29T08:06:30.255Z,8.74
2019-03-29T08:09:03.531Z,8.81
2019-03-29T08:11:46.206Z,8.78
2019-03-29T08:14:10.928Z,8.76
2019-03-29T08:16:43.446Z,8.80
2019-03-29T08:19:16.273Z,8.81
2019-03-29T08:21:48.956Z,8.92
2019-03-29T08:24:21.742Z,8.96
2019-03-29T08:26:54.263Z,9.03
2019-03-29T08:29:27.422Z,9.14
2019-03-29T08:32:00.001Z,9.25
2019-03-29T08:34:35.751Z,9.33
2019-03-29T08:37:06.711Z,9.34
2019-03-29T08:39:39.599Z,9.44
2019-03-29T08:42:12.120Z,9.52
2019-03-29T08:44:44.710Z,9.62
2019-03-29T08:47:17.496Z,9.76
2019-03-29T08:49:50.026Z,9.78
2019-03-29T08:52:22.623Z,9.80
2019-03-29T08:54:55.127Z,9.80
2019-03-29T08:57:27.812Z,9.78
2019-03-29T09:00:00.436Z,9.76
2019-03-29T09:02:33.438Z,9.72
2019-03-29T09:05:06.862Z,9.70
2019-03-29T09:07:45.104Z,9.75
2019-03-29T09:10:25.564Z,9.96
2019-03-29T09:12:58.216Z,9.98
2019-03-29T09:15:32.387Z,10.05
2019-03-29T09:18:04.965Z,10.12
2019-03-29T09:20:38.267Z,10.10
2019-03-29T09:23:10.841Z,10.12
2019-03-29T09:25:43.421Z,10.19
2019-03-29T09:28:16.094Z,10.13
2019-03-29T09:30:48.712Z,10.36
2019-03-29T09:33:21.723Z,10.48
2019-03-29T09:35:54.374Z,10.60
2019-03-29T09:38:26.940Z,10.59
2019-03-29T09:40:59.713Z,10.68
2019-03-29T09:43:32.432Z,10.64
2019-03-29T09:46:05.335Z,10.73
2019-03-29T09:48:37.932Z,10.72
2019-03-29T09:51:10.542Z,10.67
2019-03-29T09:53:43.456Z,10.76
2019-03-29T09:56:16.011Z,10.91
2019-03-29T09:58:48.565Z,11.03
2019-03-29T10:01:21.289Z,11.13
2019-03-29T10:03:53.832Z,10.98
2019-03-29T10:06:26.427Z,10.97
2019-03-29T10:08:58.978Z,11.12
2019-03-29T10:11:32.260Z,11.07
2019-03-29T10:14:05.148Z,11.15
2019-03-29T10:16:38.190Z,11.17
2019-03-29T10:19:10.814Z,11.18
2019-03-29T10:21:43.513Z,11.15
2019-03-29T10:24:16.472Z,11.19
2019-03-29T10:26:49.349Z,11.23
2019-03-29T10:29:22.289Z,11.25
2019-03-29T10:31:54.913Z,11.30
2019-03-29T10:34:27.616Z,11.43
2019-03-29T10:37:00.186Z,11.48
2019-03-29T10:39:35.827Z,11.47
2019-03-29T10:42:08.739Z,11.59
2019-03-29T10:44:42.258Z,11.54
2019-03-29T10:47:14.810Z,11.51
2019-03-29T10:49:47.669Z,11.57
2019-03-29T10:52:21.315Z,11.67
2019-03-29T10:54:54.722Z,11.82
2019-03-29T10:57:27.477Z,11.93
2019-03-29T11:00:00.385Z,11.88
2019-03-29T11:02:33.131Z,12.14
2019-03-29T11:05:06.277Z,12.30
2019-03-29T11:07:38.917Z,12.52
2019-03-29T11:10:21.443Z,12.51
2019-03-29T11:12:54.658Z,12.62
2019-03-29T11:15:27.311Z,12.71
2019-03-29T11:18:00.023Z,12.67
2019-03-29T11:20:35.486Z,12.65
2019-03-29T11:23:08.994Z,12.80
2019-03-29T11:25:41.725Z,13.01
2019-03-29T11:28:14.720Z,13.17
2019-03-29T11:30:48.685Z,13.27
2019-03-29T11:33:22.887Z,13.31
2019-03-29T11:35:57.355Z,13.36
2019-03-29T11:38:30.250Z,13.44
2019-03-29T11:41:02.898Z,13.38
2019-03-29T11:43:36.529Z,13.50
2019-03-29T11:46:09.201Z,13.54
2019-03-29T11:48:43.665Z,13.66
2019-03-29T11:51:19.479Z,13.67
2019-03-29T11:53:51.999Z,14.12
2019-03-29T11:56:24.583Z,14.24
2019-03-29T11:58:59.392Z,14.29
2019-03-29T12:01:34.521Z,14.24
2019-03-29T12:04:07.261Z,14.44
2019-03-29T12:06:39.968Z,14.70
2019-03-29T12:09:12.886Z,15.32
2019-03-29T12:11:45.445Z,15.40
2019-03-29T12:14:22.537Z,15.45
2019-03-29T12:16:55.078Z,15.88
2019-03-29T12:19:27.709Z,16.31
2019-03-29T12:22:02.574Z,15.80
2019-03-29T12:24:36.605Z,15.99
2019-03-29T12:27:09.159Z,16.23
2019-03-29T12:29:42.040Z,15.87
2019-03-29T12:32:15.612Z,16.29
2019-03-29T12:34:48.440Z,16.32
2019-03-29T12:37:23.152Z,16.62
2019-03-29T12:40:01.825Z,16.02
2019-03-29T12:42:34.961Z,16.19
2019-03-29T12:45:07.862Z,16.53
2019-03-29T12:47:41.361Z,17.07
2019-03-29T12:50:14.261Z,16.52
2019-03-29T12:52:46.862Z,16.76
2019-03-29T12:55:19.626Z,16.65
2019-03-29T12:57:52.583Z,16.97
2019-03-29T13:00:25.387Z,16.65
2019-03-29T13:02:57.944Z,16.13
2019-03-29T13:05:30.466Z,16.02
2019-03-29T13:08:02.981Z,16.28
2019-03-29T13:10:35.648Z,16.90
2019-03-29T13:13:08.613Z,17.34
2019-03-29T13:15:41.215Z,17.89
2019-03-29T13:18:13.729Z,17.58
2019-03-29T13:20:46.393Z,17.57
2019-03-29T13:23:19.427Z,17.83
2019-03-29T13:25:51.973Z,17.80
2019-03-29T13:28:24.556Z,17.29
2019-03-29T13:30:57.516Z,17.50
2019-03-29T13:33:30.205Z,18.17
2019-03-29T13:36:02.827Z,18.19
2019-03-29T13:38:35.417Z,18.44
2019-03-29T13:41:08.054Z,18.06
2019-03-29T13:43:40.599Z,17.71
2019-03-29T13:46:13.477Z,17.90
2019-03-29T13:48:46.062Z,18.02
2019-03-29T13:51:18.674Z,18.84
2019-03-29T13:53:51.170Z,18.80
2019-03-29T13:56:23.753Z,18.95
2019-03-29T13:58:57.214Z,19.45
2019-03-29T14:01:29.731Z,19.21
2019-03-29T14:04:02.505Z,19.66
2019-03-29T14:06:35.020Z,20.01
2019-03-29T14:09:08.851Z,20.09
2019-03-29T14:11:41.398Z,20.13
2019-03-29T14:14:14.392Z,20.20
2019-03-29T14:16:47.110Z,20.13
2019-03-29T14:19:19.603Z,20.10
2019-03-29T14:21:52.133Z,20.28
2019-03-29T14:24:24.631Z,20.54
2019-03-29T14:26:57.230Z,20.72
2019-03-29T14:29:29.954Z,20.81
2019-03-29T14:32:02.567Z,21.04
2019-03-29T14:34:35.226Z,20.85
2019-03-29T14:37:08.165Z,20.79
2019-03-29T14:39:40.656Z,20.69
2019-03-29T14:42:14.370Z,21.08
2019-03-29T14:44:52.727Z,21.42
2019-03-29T14:47:21.595Z,21.51
2019-03-29T14:49:54.086Z,21.71
2019-03-29T14:52:26.586Z,21.59
2019-03-29T14:54:59.221Z,21.67
2019-03-29T14:57:31.823Z,21.33
2019-03-29T15:00:05.197Z,21.28
2019-03-29T15:02:38.183Z,21.09
2019-03-29T15:05:10.930Z,21.07
2019-03-29T15:07:44.372Z,21.30
2019-03-29T15:10:27.945Z,21.19
2019-03-29T15:13:01.536Z,21.50
2019-03-29T15:15:34.959Z,21.55
2019-03-29T15:18:07.647Z,21.43
2019-03-29T15:20:52.509Z,21.40
2019-03-29T15:23:14.430Z,21.10
2019-03-29T15:25:48.100Z,21.38
2019-03-29T15:28:20.693Z,21.41
2019-03-29T15:30:53.214Z,21.42
2019-03-29T15:33:26.299Z,21.84
2019-03-29T15:35:58.864Z,21.67
2019-03-29T15:38:31.383Z,21.57
2019-03-29T15:41:03.885Z,21.50
2019-03-29T15:43:36.384Z,21.51
2019-03-29T15:46:08.992Z,21.62
2019-03-29T15:48:41.511Z,21.52
2019-03-29T15:51:14.086Z,21.42
2019-03-29T15:53:46.597Z,21.55
2019-03-29T15:56:19.091Z,21.70
2019-03-29T15:58:51.855Z,21.80
2019-03-29T16:01:24.385Z,21.72
2019-03-29T16:03:56.868Z,21.60
2019-03-29T16:06:29.714Z,21.52
2019-03-29T16:09:02.223Z,21.33
2019-03-29T16:11:36.306Z,21.44
2019-03-29T16:14:10.297Z,21.34
2019-03-29T16:16:45.895Z,21.21
2019-03-29T16:19:17.320Z,21.32
2019-03-29T16:21:49.923Z,21.39
2019-03-29T16:24:22.687Z,21.12
2019-03-29T16:26:55.205Z,21.13
2019-03-29T16:29:27.696Z,21.25
2019-03-29T16:32:00.331Z,21.02
2019-03-29T16:34:32.914Z,20.96
2019-03-29T16:37:05.521Z,20.65
2019-03-29T16:39:38.028Z,20.53
2019-03-29T16:42:11.184Z,20.49
2019-03-29T16:44:43.694Z,20.44
2019-03-29T16:47:16.305Z,20.24
2019-03-29T16:49:48.781Z,19.99
2019-03-29T16:52:22.261Z,19.96
2019-03-29T16:54:54.836Z,19.77
2019-03-29T16:57:27.349Z,19.50
2019-03-29T17:00:00.394Z,19.14
2019-03-29T17:02:33.024Z,18.93
2019-03-29T17:05:06.347Z,18.60
2019-03-29T17:07:38.862Z,18.34
2019-03-29T17:10:11.669Z,18.03
2019-03-29T17:12:44.502Z,17.56
2019-03-29T17:15:17.155Z,17.41
2019-03-29T17:17:49.677Z,17.12
2019-03-29T17:20:23.181Z,16.86
2019-03-29T17:22:55.920Z,16.63
2019-03-29T17:25:28.576Z,16.52
2019-03-29T17:28:01.083Z,16.39
2019-03-29T17:30:46.415Z,16.25
2019-03-29T17:33:22.274Z,16.09
2019-03-29T17:35:53.676Z,15.86
2019-03-29T17:38:26.197Z,15.59
2019-03-29T17:40:58.856Z,15.28
2019-03-29T17:43:31.556Z,15.00
2019-03-29T17:46:15.606Z,14.75
2019-03-29T17:48:39.520Z,14.61
2019-03-29T17:51:12.151Z,14.20
2019-03-29T17:53:44.643Z,14.07
2019-03-29T17:56:17.244Z,13.90
2019-03-29T17:58:49.764Z,13.75
2019-03-29T18:01:22.278Z,13.57
2019-03-29T18:03:55.706Z,13.37
2019-03-29T18:06:28.354Z,13.09
2019-03-29T18:09:00.941Z,12.94
2019-03-29T18:11:35.034Z,12.70
2019-03-29T18:14:07.622Z,12.55
2019-03-29T18:16:40.114Z,12.37
2019-03-29T18:19:12.696Z,12.26
2019-03-29T18:21:45.253Z,12.05
2019-03-29T18:24:18.202Z,11.79
2019-03-29T18:26:50.820Z,11.63
2019-03-29T18:29:23.446Z,11.42
2019-03-29T18:31:56.294Z,11.24
2019-03-29T18:34:29.062Z,11.18
2019-03-29T18:37:02.189Z,10.95
2019-03-29T18:39:36.978Z,10.82
2019-03-29T18:42:10.786Z,10.67
2019-03-29T18:44:43.335Z,10.60
2019-03-29T18:47:15.888Z,10.56
2019-03-29T18:49:48.615Z,10.45
2019-03-29T18:52:21.132Z,10.37
2019-03-29T18:54:53.798Z,10.31
2019-03-29T18:57:26.441Z,10.21
2019-03-29T18:59:59.621Z,10.07
2019-03-29T19:02:32.200Z,9.89
2019-03-29T19:05:05.302Z,9.77
2019-03-29T19:07:38.290Z,9.69
2019-03-29T19:10:10.986Z,9.55
2019-03-29T19:12:43.607Z,9.48
2019-03-29T19:15:16.223Z,9.33
2019-03-29T19:17:49.236Z,9.26
2019-03-29T19:20:27.629Z,9.15
2019-03-29T19:22:56.733Z,9.07
2019-03-29T19:25:29.851Z,8.98
2019-03-29T19:28:02.448Z,8.94
2019-03-29T19:30:35.496Z,8.81
2019-03-29T19:33:08.304Z,8.70
2019-03-29T19:35:40.995Z,8.78
2019-03-29T19:38:13.972Z,8.68
2019-03-29T19:40:46.850Z,8.54
2019-03-29T19:43:19.556Z,8.41
2019-03-29T19:45:52.543Z,8.28
2019-03-29T19:48:25.672Z,8.18
2019-03-29T19:50:58.485Z,7.97
2019-03-29T19:53:34.239Z,7.88
2019-03-29T19:56:05.690Z,7.95
2019-03-29T19:58:38.621Z,7.93
2019-03-29T20:01:11.585Z,7.98
2019-03-29T20:03:44.319Z,7.97
2019-03-29T20:06:16.971Z,7.96
2019-03-29T20:08:49.889Z,7.75
2019-03-29T20:11:22.480Z,7.72
2019-03-29T20:13:55.255Z,7.67
2019-03-29T20:16:27.833Z,7.61
2019-03-29T20:19:00.511Z,7.56
2019-03-29T20:21:33.337Z,7.47
2019-03-29T20:24:05.983Z,7.46
2019-03-29T20:26:38.583Z,7.48
2019-03-29T20:29:11.586Z,7.37
2019-03-29T20:31:44.174Z,7.18
2019-03-29T20:34:16.804Z,7.10
2019-03-29T20:36:49.600Z,7.06
2019-03-29T20:39:22.143Z,7.07
2019-03-29T20:41:55.068Z,7.02
2019-03-29T20:44:27.798Z,6.95
2019-03-29T20:47:00.353Z,6.83
2019-03-29T20:49:32.917Z,6.77
2019-03-29T20:52:05.641Z,6.63
2019-03-29T20:54:38.297Z,6.53
2019-03-29T20:57:10.859Z,6.49
2019-03-29T20:59:43.462Z,6.44
2019-03-29T21:02:16.361Z,6.43
2019-03-29T21:04:48.965Z,6.42
2019-03-29T21:07:44.184Z,6.35
2019-03-29T21:10:17.677Z,6.31
2019-03-29T21:12:50.794Z,6.34
2019-03-29T21:15:23.945Z,6.23
2019-03-29T21:17:58.066Z,6.16
2019-03-29T21:20:31.615Z,6.15
2019-03-29T21:23:04.231Z,5.91
2019-03-29T21:25:37.052Z,5.81
2019-03-29T21:28:10.266Z,5.61
2019-03-29T21:30:42.783Z,5.71
2019-03-29T21:33:15.297Z,5.68
2019-03-29T21:35:48.324Z,5.63
2019-03-29T21:38:21.036Z,5.63
2019-03-29T21:40:53.570Z,5.75
2019-03-29T21:43:26.407Z,5.63
2019-03-29T21:45:59.071Z,5.50
2019-03-29T21:48:31.876Z,5.37
2019-03-29T21:51:04.410Z,5.07
2019-03-29T21:53:36.909Z,4.89
2019-03-29T21:56:10.403Z,4.84
2019-03-29T21:58:42.936Z,4.67
2019-03-29T22:01:15.457Z,4.74
2019-03-29T22:03:48.039Z,4.67
2019-03-29T22:06:20.718Z,4.64
2019-03-29T22:08:53.209Z,4.57
2019-03-29T22:11:26.883Z,4.51
2019-03-29T22:13:59.490Z,4.51
2019-03-29T22:16:32.392Z,4.49
2019-03-29T22:19:05.016Z,4.40
2019-03-29T22:21:37.872Z,4.33
2019-03-29T22:24:11.020Z,4.26
2019-03-29T22:26:43.547Z,4.29
2019-03-29T22:29:17.154Z,4.14
2019-03-29T22:31:49.669Z,4.14
2019-03-29T22:34:22.208Z,4.13
2019-03-29T22:36:55.156Z,4.10
2019-03-29T22:39:27.684Z,4.05
2019-03-29T22:42:00.322Z,3.98
2019-03-29T22:44:32.841Z,3.98
2019-03-29T22:47:05.439Z,4.05
2019-03-29T22:49:38.138Z,4.13
2019-03-29T22:52:11.021Z,4.08
2019-03-29T22:54:43.538Z,4.02
2019-03-29T22:57:16.367Z,3.93
2019-03-29T22:59:48.966Z,3.88
2019-03-29T23:02:21.892Z,3.80
2019-03-29T23:04:54.398Z,3.63
2019-03-29T23:07:27.012Z,3.54
2019-03-29T23:09:59.516Z,3.46
2019-03-29T23:12:32.330Z,3.45
2019-03-29T23:15:05.474Z,3.44
2019-03-29T23:17:37.993Z,3.27
2019-03-29T23:20:11.413Z,3.16
2019-03-29T23:22:43.936Z,3.20
2019-03-29T23:25:17.424Z,3.16
2019-03-29T23:27:50.090Z,3.09
2019-03-29T23:30:22.953Z,3.07
2019-03-29T23:32:55.544Z,2.98
2019-03-29T23:35:28.049Z,2.87
2019-03-29T23:38:00.585Z,2.83
2019-03-29T23:40:33.117Z,2.96
2019-03-29T23:43:05.717Z,2.91
2019-03-29T23:45:38.384Z,2.86
2019-03-29T23:48:11.289Z,2.81
2019-03-29T23:50:44.154Z,2.75
2019-03-29T23:53:16.749Z,2.93
2019-03-29T23:55:49.292Z,2.92
2019-03-29T23:58:21.807Z,2.92
